PWSweather.com
Personal Weather Stations
Station Observations
BWSWX1
Teesside, BillinghamGB TS23 1DL

TeessideBillinghamGB TS23 1DL

Lat: 54.588219, Lon: -1.289528

Elevation: 39

Station Type: Davis Vantage Pro2 Plus

http://billinghamweather.com/index.php

High Low Average
Temperature 65.6°F18.7°C 51.1°F10.6°C 56.5°F13.6°C
Dew Point 56.1°F13.4°C 49.7°F9.8°C 52.2°F11.2°C
Winds 5.8 mph 9.3 kmh Calm Calm 3.0 mph ESE4.8 kmh ESE
Wind Gusts 16.1 mph25.9 kmh 2.3 mph3.7 kmh 6.0 mph9.7 kmh
Humidity 96% 68% 86%
Pressure 30.30 in1026.1 mb 30.22 in1023.4 mb -
Precipitation 0.01 in0.3 mm - -
Hour Temp Dew Point Humidity Winds Wind Gusts Pressure Precip Precip Rate Daily Precip Total
12:00 AM 52.3°F11.3°C 51.2°F10.7°C 96% 2.3 mph NNW3.7 kmh NNW 3.5 mph5.6 kmh 30.24 in1024.0 mb - 0.00 in0.0 mm 0.00 in0.0 mm
12:10 AM 52.4°F11.3°C 51.3°F10.7°C 96% 3.5 mph N5.6 kmh N 8.1 mph13.0 kmh 30.23 in1023.7 mb - 0.00 in0.0 mm 0.00 in0.0 mm
12:20 AM 52.5°F11.4°C 51.4°F10.8°C 96% 2.3 mph N3.7 kmh N 5.8 mph9.3 kmh 30.23 in1023.7 mb - 0.00 in0.0 mm 0.00 in0.0 mm
12:30 AM 52.6°F11.4°C 51.5°F10.8°C 96% 1.2 mph NNW1.9 kmh NNW 2.3 mph3.7 kmh 30.23 in1023.7 mb - 0.00 in0.0 mm 0.00 in0.0 mm
12:40 AM 52.5°F11.4°C 51.4°F10.8°C 96% 1.2 mph N1.9 kmh N 3.5 mph5.6 kmh 30.23 in1023.7 mb - 0.00 in0.0 mm 0.00 in0.0 mm
12:50 AM 52.5°F11.4°C 51.4°F10.8°C 96% 1.2 mph NNW1.9 kmh NNW 2.3 mph3.7 kmh 30.23 in1023.7 mb - 0.00 in0.0 mm 0.00 in0.0 mm
01:00 AM 52.4°F11.3°C 51.3°F10.7°C 96% 1.2 mph NE1.9 kmh NE 2.3 mph3.7 kmh 30.23 in1023.7 mb - 0.00 in0.0 mm 0.00 in0.0 mm
01:10 AM 52.6°F11.4°C 51.5°F10.8°C 96% 2.3 mph ESE3.7 kmh ESE 3.5 mph5.6 kmh 30.23 in1023.7 mb - 0.00 in0.0 mm 0.00 in0.0 mm
01:20 AM 52.6°F11.4°C 51.5°F10.8°C 96% 1.2 mph E1.9 kmh E 2.3 mph3.7 kmh 30.23 in1023.7 mb - 0.00 in0.0 mm 0.00 in0.0 mm
01:30 AM 52.5°F11.4°C 51.4°F10.8°C 96% 1.2 mph N1.9 kmh N 4.6 mph7.4 kmh 30.23 in1023.7 mb - 0.00 in0.0 mm 0.00 in0.0 mm
01:40 AM 52.5°F11.4°C 51.4°F10.8°C 96% 2.3 mph NNE3.7 kmh NNE 5.8 mph9.3 kmh 30.22 in1023.4 mb - 0.00 in0.0 mm 0.00 in0.0 mm
01:50 AM 52.4°F11.3°C 51.3°F10.7°C 96% 5.8 mph N9.3 kmh N 10.4 mph16.7 kmh 30.22 in1023.4 mb - 0.00 in0.0 mm 0.00 in0.0 mm
02:00 AM 52.3°F11.3°C 51.2°F10.7°C 96% 3.5 mph ENE5.6 kmh ENE 9.2 mph14.8 kmh 30.23 in1023.7 mb - 0.00 in0.0 mm 0.00 in0.0 mm
02:10 AM 52.4°F11.3°C 51.3°F10.7°C 96% 3.5 mph N5.6 kmh N 8.1 mph13.0 kmh 30.22 in1023.4 mb - 0.00 in0.0 mm 0.00 in0.0 mm
02:20 AM 52.4°F11.3°C 51.3°F10.7°C 96% 3.5 mph N5.6 kmh N 3.5 mph5.6 kmh 30.22 in1023.4 mb - 0.00 in0.0 mm 0.00 in0.0 mm
02:30 AM 52.3°F11.3°C 51.2°F10.7°C 96% 3.5 mph NW5.6 kmh NW 3.5 mph5.6 kmh 30.23 in1023.7 mb - 0.00 in0.0 mm 0.00 in0.0 mm
02:40 AM 52.3°F11.3°C 51.2°F10.7°C 96% 3.5 mph N5.6 kmh N 8.1 mph13.0 kmh 30.23 in1023.7 mb - 0.00 in0.0 mm 0.00 in0.0 mm
02:50 AM 52.1°F11.2°C 51.0°F10.6°C 96% 4.6 mph NNE7.4 kmh NNE 9.2 mph14.8 kmh 30.23 in1023.7 mb - 0.00 in0.0 mm 0.00 in0.0 mm
03:00 AM 52.0°F11.1°C 50.6°F10.3°C 95% 3.5 mph NNW5.6 kmh NNW 8.1 mph13.0 kmh 30.23 in1023.7 mb - 0.00 in0.0 mm 0.00 in0.0 mm
03:10 AM 51.8°F11.0°C 50.7°F10.4°C 96% 3.5 mph NE5.6 kmh NE 5.8 mph9.3 kmh 30.23 in1023.7 mb - 0.00 in0.0 mm 0.00 in0.0 mm
03:20 AM 51.6°F10.9°C 50.5°F10.3°C 96% 2.3 mph NE3.7 kmh NE 6.9 mph11.1 kmh 30.23 in1023.7 mb - 0.00 in0.0 mm 0.00 in0.0 mm
03:30 AM 51.5°F10.8°C 50.4°F10.2°C 96% 3.5 mph ENE5.6 kmh ENE 5.8 mph9.3 kmh 30.23 in1023.7 mb - 0.00 in0.0 mm 0.00 in0.0 mm
03:40 AM 51.5°F10.8°C 50.4°F10.2°C 96% 2.3 mph NE3.7 kmh NE 6.9 mph11.1 kmh 30.23 in1023.7 mb - 0.00 in0.0 mm 0.00 in0.0 mm
03:50 AM 51.3°F10.7°C 49.9°F9.9°C 95% 3.5 mph N5.6 kmh N 6.9 mph11.1 kmh 30.23 in1023.7 mb - 0.00 in0.0 mm 0.00 in0.0 mm
04:00 AM 51.2°F10.7°C 49.8°F9.9°C 95% 2.3 mph N3.7 kmh N 5.8 mph9.3 kmh 30.23 in1023.7 mb - 0.00 in0.0 mm 0.00 in0.0 mm
04:10 AM 51.2°F10.7°C 49.8°F9.9°C 95% 4.6 mph N7.4 kmh N 9.2 mph14.8 kmh 30.23 in1023.7 mb - 0.00 in0.0 mm 0.00 in0.0 mm
04:20 AM 51.1°F10.6°C 49.7°F9.8°C 95% 4.6 mph N7.4 kmh N 8.1 mph13.0 kmh 30.24 in1024.0 mb - 0.00 in0.0 mm 0.00 in0.0 mm
04:30 AM 51.1°F10.6°C 49.7°F9.8°C 95% 3.5 mph N5.6 kmh N 3.5 mph5.6 kmh 30.24 in1024.0 mb - 0.00 in0.0 mm 0.00 in0.0 mm
04:40 AM 51.1°F10.6°C 49.7°F9.8°C 95% 2.3 mph N3.7 kmh N 4.6 mph7.4 kmh 30.24 in1024.0 mb - 0.00 in0.0 mm 0.00 in0.0 mm
04:50 AM 51.2°F10.7°C 49.8°F9.9°C 95% 2.3 mph NNE3.7 kmh NNE 3.5 mph5.6 kmh 30.24 in1024.0 mb - 0.00 in0.0 mm 0.00 in0.0 mm
05:00 AM 51.2°F10.7°C 49.9°F9.9°C 95% 1.2 mph NE1.9 kmh NE 2.3 mph3.7 kmh 30.25 in1024.4 mb - 0.00 in0.0 mm 0.00 in0.0 mm
05:10 AM 51.3°F10.7°C 49.9°F9.9°C 95% 2.3 mph NNW3.7 kmh NNW 3.5 mph5.6 kmh 30.25 in1024.4 mb - 0.00 in0.0 mm 0.00 in0.0 mm
05:20 AM 51.4°F10.8°C 50.0°F10.0°C 95% 2.3 mph NNW3.7 kmh NNW 6.9 mph11.1 kmh 30.25 in1024.4 mb - 0.00 in0.0 mm 0.00 in0.0 mm
05:30 AM 51.6°F10.9°C 50.2°F10.1°C 95% 3.5 mph N5.6 kmh N 10.4 mph16.7 kmh 30.25 in1024.4 mb - 0.00 in0.0 mm 0.00 in0.0 mm
05:40 AM 51.9°F11.1°C 50.5°F10.3°C 95% 2.3 mph ENE3.7 kmh ENE 6.9 mph11.1 kmh 30.25 in1024.4 mb - 0.00 in0.0 mm 0.00 in0.0 mm
05:50 AM 52.1°F11.2°C 50.7°F10.4°C 95% 3.5 mph N5.6 kmh N 5.8 mph9.3 kmh 30.25 in1024.4 mb - 0.00 in0.0 mm 0.00 in0.0 mm
06:00 AM 52.4°F11.3°C 51.0°F10.6°C 95% 1.2 mph NNE1.9 kmh NNE 9.2 mph14.8 kmh 30.25 in1024.4 mb - 0.00 in0.0 mm 0.00 in0.0 mm
06:10 AM 52.9°F11.6°C 51.5°F10.8°C 95% 3.5 mph NE5.6 kmh NE 8.1 mph13.0 kmh 30.25 in1024.4 mb - 0.00 in0.0 mm 0.00 in0.0 mm
06:20 AM 53.3°F11.8°C 51.9°F11.1°C 95% 3.5 mph NNE5.6 kmh NNE 12.7 mph20.4 kmh 30.25 in1024.4 mb - 0.00 in0.0 mm 0.00 in0.0 mm
06:30 AM 53.7°F12.1°C 52.3°F11.3°C 95% 2.3 mph N3.7 kmh N 5.8 mph9.3 kmh 30.26 in1024.7 mb - 0.00 in0.0 mm 0.00 in0.0 mm
06:40 AM 53.9°F12.2°C 52.2°F11.2°C 94% 4.6 mph N7.4 kmh N 8.1 mph13.0 kmh 30.27 in1025.1 mb - 0.00 in0.0 mm 0.00 in0.0 mm
06:50 AM 54.0°F12.2°C 52.3°F11.3°C 94% 2.3 mph NNE3.7 kmh NNE 4.6 mph7.4 kmh 30.27 in1025.1 mb - 0.00 in0.0 mm 0.00 in0.0 mm
07:00 AM 54.3°F12.4°C 52.6°F11.4°C 94% 3.5 mph N5.6 kmh N 4.6 mph7.4 kmh 30.27 in1025.1 mb - 0.00 in0.0 mm 0.00 in0.0 mm
07:10 AM 54.6°F12.6°C 52.6°F11.4°C 93% 2.3 mph NE3.7 kmh NE 5.8 mph9.3 kmh 30.27 in1025.1 mb - 0.00 in0.0 mm 0.00 in0.0 mm
07:20 AM 55.0°F12.8°C 53.0°F11.7°C 93% 3.5 mph NE5.6 kmh NE 6.9 mph11.1 kmh 30.27 in1025.1 mb - 0.00 in0.0 mm 0.00 in0.0 mm
07:30 AM 55.4°F13.0°C 53.1°F11.7°C 92% 3.5 mph SE5.6 kmh SE 3.5 mph5.6 kmh 30.27 in1025.1 mb - 0.00 in0.0 mm 0.00 in0.0 mm
07:40 AM 56.2°F13.4°C 53.9°F12.2°C 92% 3.5 mph NE5.6 kmh NE 6.9 mph11.1 kmh 30.27 in1025.1 mb - 0.00 in0.0 mm 0.00 in0.0 mm
07:50 AM 56.4°F13.6°C 53.8°F12.1°C 91% 2.3 mph NNE3.7 kmh NNE 8.1 mph13.0 kmh 30.27 in1025.1 mb - 0.00 in0.0 mm 0.00 in0.0 mm
08:00 AM 56.8°F13.8°C 53.9°F12.2°C 90% Calm Calm 2.3 mph3.7 kmh 30.28 in1025.4 mb - 0.00 in0.0 mm 0.00 in0.0 mm
08:10 AM 57.3°F14.1°C 54.4°F12.4°C 90% 2.3 mph NE3.7 kmh NE 5.8 mph9.3 kmh 30.27 in1025.1 mb - 0.00 in0.0 mm 0.00 in0.0 mm
08:20 AM 58.6°F14.8°C 55.0°F12.8°C 88% 3.5 mph ENE5.6 kmh ENE 10.4 mph16.7 kmh 30.28 in1025.4 mb - 0.00 in0.0 mm 0.00 in0.0 mm
08:30 AM 59.7°F15.4°C 55.2°F12.9°C 85% 3.5 mph N5.6 kmh N 9.2 mph14.8 kmh 30.27 in1025.1 mb - 0.00 in0.0 mm 0.00 in0.0 mm
08:40 AM 60.6°F15.9°C 55.7°F13.2°C 84% 3.5 mph NE5.6 kmh NE 6.9 mph11.1 kmh 30.28 in1025.4 mb - 0.00 in0.0 mm 0.00 in0.0 mm
08:50 AM 61.3°F16.3°C 55.4°F13.0°C 81% 2.3 mph N3.7 kmh N 4.6 mph7.4 kmh 30.28 in1025.4 mb - 0.00 in0.0 mm 0.00 in0.0 mm
09:00 AM 61.7°F16.5°C 55.1°F12.8°C 79% 3.5 mph NNE5.6 kmh NNE 3.5 mph5.6 kmh 30.28 in1025.4 mb - 0.00 in0.0 mm 0.00 in0.0 mm
09:10 AM 62.0°F16.7°C 54.7°F12.6°C 77% 2.3 mph NE3.7 kmh NE 4.6 mph7.4 kmh 30.28 in1025.4 mb - 0.00 in0.0 mm 0.00 in0.0 mm
09:20 AM 61.8°F16.6°C 54.2°F12.3°C 76% 3.5 mph N5.6 kmh N 6.9 mph11.1 kmh 30.28 in1025.4 mb - 0.00 in0.0 mm 0.00 in0.0 mm
09:30 AM 61.6°F16.4°C 54.0°F12.2°C 76% 2.3 mph NE3.7 kmh NE 5.8 mph9.3 kmh 30.28 in1025.4 mb - 0.01 in0.3 mm 0.01 in0.3 mm
09:40 AM 61.3°F16.3°C 53.7°F12.1°C 76% 4.6 mph NE7.4 kmh NE 9.2 mph14.8 kmh 30.28 in1025.4 mb - 0.01 in0.3 mm 0.01 in0.3 mm
09:50 AM 61.0°F16.1°C 53.7°F12.1°C 77% 2.3 mph E3.7 kmh E 6.9 mph11.1 kmh 30.28 in1025.4 mb - 0.01 in0.3 mm 0.01 in0.3 mm
10:00 AM 60.6°F15.9°C 53.3°F11.8°C 77% 3.5 mph NE5.6 kmh NE 5.8 mph9.3 kmh 30.28 in1025.4 mb - 0.01 in0.3 mm 0.01 in0.3 mm
10:10 AM 60.0°F15.6°C 53.1°F11.7°C 78% 3.5 mph NE5.6 kmh NE 9.2 mph14.8 kmh 30.28 in1025.4 mb - 0.01 in0.3 mm 0.01 in0.3 mm
10:20 AM 59.3°F15.2°C 53.1°F11.7°C 80% 2.3 mph NE3.7 kmh NE 8.1 mph13.0 kmh 30.29 in1025.7 mb - 0.01 in0.3 mm 0.01 in0.3 mm
10:30 AM 58.6°F14.8°C 52.8°F11.6°C 81% 2.3 mph N3.7 kmh N 4.6 mph7.4 kmh 30.29 in1025.7 mb - 0.00 in0.0 mm 0.01 in0.3 mm
10:40 AM 58.3°F14.6°C 52.9°F11.6°C 82% 2.3 mph NNE3.7 kmh NNE 5.8 mph9.3 kmh 30.29 in1025.7 mb - 0.00 in0.0 mm 0.01 in0.3 mm
10:50 AM 58.0°F14.4°C 52.5°F11.4°C 82% 3.5 mph N5.6 kmh N 8.1 mph13.0 kmh 30.29 in1025.7 mb - 0.00 in0.0 mm 0.01 in0.3 mm
11:00 AM 57.8°F14.3°C 52.6°F11.4°C 83% 4.6 mph N7.4 kmh N 9.2 mph14.8 kmh 30.29 in1025.7 mb - 0.00 in0.0 mm 0.01 in0.3 mm
11:10 AM 58.0°F14.4°C 52.8°F11.6°C 83% 3.5 mph NNW5.6 kmh NNW 5.8 mph9.3 kmh 30.29 in1025.7 mb - 0.00 in0.0 mm 0.01 in0.3 mm
11:20 AM 59.6°F15.3°C 54.5°F12.5°C 83% 4.6 mph NE7.4 kmh NE 10.4 mph16.7 kmh 30.29 in1025.7 mb - 0.00 in0.0 mm 0.01 in0.3 mm
11:30 AM 61.1°F16.2°C 54.8°F12.7°C 80% 3.5 mph NE5.6 kmh NE 4.6 mph7.4 kmh 30.30 in1026.1 mb - 0.00 in0.0 mm 0.01 in0.3 mm
11:40 AM 62.6°F17.0°C 56.0°F13.3°C 79% 3.5 mph NE5.6 kmh NE 6.9 mph11.1 kmh 30.30 in1026.1 mb - 0.00 in0.0 mm 0.01 in0.3 mm
11:50 AM 63.7°F17.6°C 56.0°F13.3°C 76% 2.3 mph NE3.7 kmh NE 8.1 mph13.0 kmh 30.30 in1026.1 mb - 0.00 in0.0 mm 0.01 in0.3 mm
12:00 PM 64.2°F17.9°C 56.1°F13.4°C 75% 3.5 mph N5.6 kmh N 8.1 mph13.0 kmh 30.30 in1026.1 mb - 0.00 in0.0 mm 0.01 in0.3 mm
12:10 PM 64.4°F18.0°C 55.6°F13.1°C 73% 3.5 mph NE5.6 kmh NE 8.1 mph13.0 kmh 30.30 in1026.1 mb - 0.00 in0.0 mm 0.01 in0.3 mm
12:20 PM 64.6°F18.1°C 55.3°F12.9°C 72% 3.5 mph NNE5.6 kmh NNE 9.2 mph14.8 kmh 30.29 in1025.7 mb - 0.00 in0.0 mm 0.01 in0.3 mm
12:30 PM 65.2°F18.4°C 56.0°F13.3°C 72% 1.2 mph NNE1.9 kmh NNE 2.3 mph3.7 kmh 30.29 in1025.7 mb - 0.00 in0.0 mm 0.01 in0.3 mm
12:40 PM 65.2°F18.4°C 55.1°F12.8°C 70% 3.5 mph N5.6 kmh N 8.1 mph13.0 kmh 30.29 in1025.7 mb - 0.00 in0.0 mm 0.01 in0.3 mm
12:50 PM 64.9°F18.3°C 54.9°F12.7°C 70% 3.5 mph N5.6 kmh N 6.9 mph11.1 kmh 30.29 in1025.7 mb - 0.00 in0.0 mm 0.01 in0.3 mm
01:00 PM 64.5°F18.1°C 54.5°F12.5°C 70% 2.3 mph NE3.7 kmh NE 4.6 mph7.4 kmh 30.29 in1025.7 mb - 0.00 in0.0 mm 0.01 in0.3 mm
01:10 PM 64.9°F18.3°C 54.9°F12.7°C 70% 1.2 mph E1.9 kmh E 2.3 mph3.7 kmh 30.29 in1025.7 mb - 0.00 in0.0 mm 0.01 in0.3 mm
01:20 PM 65.0°F18.3°C 55.0°F12.8°C 70% 3.5 mph NNE5.6 kmh NNE 5.8 mph9.3 kmh 30.29 in1025.7 mb - 0.00 in0.0 mm 0.01 in0.3 mm
01:30 PM 65.4°F18.6°C 55.0°F12.8°C 69% 3.5 mph ENE5.6 kmh ENE 6.9 mph11.1 kmh 30.29 in1025.7 mb - 0.00 in0.0 mm 0.01 in0.3 mm
01:40 PM 65.6°F18.7°C 54.7°F12.6°C 68% 3.5 mph E5.6 kmh E 8.1 mph13.0 kmh 30.29 in1025.7 mb - 0.00 in0.0 mm 0.01 in0.3 mm
01:50 PM 65.4°F18.6°C 54.9°F12.7°C 69% 2.3 mph E3.7 kmh E 6.9 mph11.1 kmh 30.29 in1025.7 mb - 0.00 in0.0 mm 0.01 in0.3 mm
02:00 PM 65.5°F18.6°C 54.6°F12.6°C 68% 2.3 mph NNE3.7 kmh NNE 8.1 mph13.0 kmh 30.29 in1025.7 mb - 0.00 in0.0 mm 0.01 in0.3 mm
02:10 PM 64.8°F18.2°C 54.4°F12.4°C 69% 1.2 mph NE1.9 kmh NE 4.6 mph7.4 kmh 30.29 in1025.7 mb - 0.00 in0.0 mm 0.01 in0.3 mm
02:20 PM 64.5°F18.1°C 54.5°F12.5°C 70% 3.5 mph NE5.6 kmh NE 8.1 mph13.0 kmh 30.29 in1025.7 mb - 0.00 in0.0 mm 0.01 in0.3 mm
02:30 PM 63.3°F17.4°C 53.8°F12.1°C 71% 3.5 mph N5.6 kmh N 5.8 mph9.3 kmh 30.28 in1025.4 mb - 0.00 in0.0 mm 0.01 in0.3 mm
02:40 PM 62.4°F16.9°C 53.6°F12.0°C 73% 2.3 mph NE3.7 kmh NE 6.9 mph11.1 kmh 30.29 in1025.7 mb - 0.00 in0.0 mm 0.01 in0.3 mm
02:50 PM 61.4°F16.3°C 53.1°F11.7°C 74% 2.3 mph N3.7 kmh N 5.8 mph9.3 kmh 30.27 in1025.1 mb - 0.00 in0.0 mm 0.01 in0.3 mm
03:00 PM 61.3°F16.3°C 53.3°F11.8°C 75% 3.5 mph NE5.6 kmh NE 9.2 mph14.8 kmh 30.27 in1025.1 mb - 0.00 in0.0 mm 0.01 in0.3 mm
03:10 PM 61.3°F16.3°C 53.3°F11.8°C 75% 2.3 mph N3.7 kmh N 8.1 mph13.0 kmh 30.28 in1025.4 mb - 0.00 in0.0 mm 0.01 in0.3 mm
03:20 PM 61.4°F16.3°C 53.8°F12.1°C 76% 3.5 mph ENE5.6 kmh ENE 8.1 mph13.0 kmh 30.27 in1025.1 mb - 0.00 in0.0 mm 0.01 in0.3 mm
03:30 PM 61.3°F16.3°C 53.3°F11.8°C 75% 2.3 mph NNE3.7 kmh NNE 4.6 mph7.4 kmh 30.27 in1025.1 mb - 0.00 in0.0 mm 0.01 in0.3 mm
03:40 PM 60.7°F15.9°C 52.7°F11.5°C 75% 3.5 mph N5.6 kmh N 6.9 mph11.1 kmh 30.27 in1025.1 mb - 0.00 in0.0 mm 0.01 in0.3 mm
03:50 PM 60.2°F15.7°C 52.6°F11.4°C 76% 3.5 mph NNE5.6 kmh NNE 6.9 mph11.1 kmh 30.28 in1025.4 mb - 0.00 in0.0 mm 0.01 in0.3 mm
04:00 PM 59.9°F15.5°C 53.0°F11.7°C 78% 3.5 mph N5.6 kmh N 5.8 mph9.3 kmh 30.27 in1025.1 mb - 0.00 in0.0 mm 0.01 in0.3 mm
04:10 PM 59.9°F15.5°C 53.0°F11.7°C 78% 4.6 mph N7.4 kmh N 11.5 mph18.5 kmh 30.28 in1025.4 mb - 0.00 in0.0 mm 0.01 in0.3 mm
04:20 PM 59.6°F15.3°C 52.7°F11.5°C 78% 3.5 mph N5.6 kmh N 8.1 mph13.0 kmh 30.27 in1025.1 mb - 0.00 in0.0 mm 0.01 in0.3 mm
04:30 PM 58.9°F14.9°C 52.4°F11.3°C 79% 4.6 mph N7.4 kmh N 8.1 mph13.0 kmh 30.27 in1025.1 mb - 0.00 in0.0 mm 0.01 in0.3 mm
04:40 PM 58.7°F14.8°C 52.5°F11.4°C 80% 3.5 mph NE5.6 kmh NE 4.6 mph7.4 kmh 30.27 in1025.1 mb - 0.00 in0.0 mm 0.01 in0.3 mm
04:50 PM 59.0°F15.0°C 52.8°F11.6°C 80% 4.6 mph N7.4 kmh N 5.8 mph9.3 kmh 30.27 in1025.1 mb - 0.00 in0.0 mm 0.01 in0.3 mm
05:00 PM 59.1°F15.1°C 52.9°F11.6°C 80% 3.5 mph NNE5.6 kmh NNE 9.2 mph14.8 kmh 30.27 in1025.1 mb - 0.00 in0.0 mm 0.01 in0.3 mm
05:10 PM 58.8°F14.9°C 52.6°F11.4°C 80% 4.6 mph N7.4 kmh N 8.1 mph13.0 kmh 30.27 in1025.1 mb - 0.00 in0.0 mm 0.01 in0.3 mm
05:20 PM 58.4°F14.7°C 52.2°F11.2°C 80% 5.8 mph NNE9.3 kmh NNE 16.1 mph25.9 kmh 30.27 in1025.1 mb - 0.00 in0.0 mm 0.01 in0.3 mm
05:30 PM 57.8°F14.3°C 52.3°F11.3°C 82% 2.3 mph N3.7 kmh N 5.8 mph9.3 kmh 30.27 in1025.1 mb - 0.00 in0.0 mm 0.01 in0.3 mm
05:40 PM 57.4°F14.1°C 52.0°F11.1°C 82% 2.3 mph N3.7 kmh N 4.6 mph7.4 kmh 30.27 in1025.1 mb - 0.00 in0.0 mm 0.01 in0.3 mm
05:50 PM 57.2°F14.0°C 52.1°F11.2°C 83% 2.3 mph N3.7 kmh N 4.6 mph7.4 kmh 30.27 in1025.1 mb - 0.00 in0.0 mm 0.01 in0.3 mm
06:00 PM 57.0°F13.9°C 52.2°F11.2°C 84% 4.6 mph N7.4 kmh N 8.1 mph13.0 kmh 30.27 in1025.1 mb - 0.00 in0.0 mm 0.01 in0.3 mm
06:10 PM 56.8°F13.8°C 52.0°F11.1°C 84% 3.5 mph N5.6 kmh N 9.2 mph14.8 kmh 30.27 in1025.1 mb - 0.00 in0.0 mm 0.01 in0.3 mm
06:20 PM 56.6°F13.7°C 51.8°F11.0°C 84% 2.3 mph NNE3.7 kmh NNE 6.9 mph11.1 kmh 30.27 in1025.1 mb - 0.00 in0.0 mm 0.01 in0.3 mm
06:30 PM 56.3°F13.5°C 51.8°F11.0°C 85% 2.3 mph N3.7 kmh N 6.9 mph11.1 kmh 30.27 in1025.1 mb - 0.00 in0.0 mm 0.01 in0.3 mm
06:40 PM 56.2°F13.4°C 51.7°F10.9°C 85% 4.6 mph N7.4 kmh N 5.8 mph9.3 kmh 30.26 in1024.7 mb - 0.00 in0.0 mm 0.01 in0.3 mm
06:50 PM 55.8°F13.2°C 51.4°F10.8°C 85% 3.5 mph NNE5.6 kmh NNE 6.9 mph11.1 kmh 30.26 in1024.7 mb - 0.00 in0.0 mm 0.01 in0.3 mm
07:00 PM 55.6°F13.1°C 51.4°F10.8°C 86% 3.5 mph N5.6 kmh N 5.8 mph9.3 kmh 30.26 in1024.7 mb - 0.00 in0.0 mm 0.01 in0.3 mm
07:10 PM 55.3°F12.9°C 51.1°F10.6°C 86% 4.6 mph N7.4 kmh N 6.9 mph11.1 kmh 30.26 in1024.7 mb - 0.00 in0.0 mm 0.01 in0.3 mm
07:20 PM 55.0°F12.8°C 50.9°F10.5°C 86% 3.5 mph N5.6 kmh N 8.1 mph13.0 kmh 30.27 in1025.1 mb - 0.00 in0.0 mm 0.01 in0.3 mm
07:30 PM 54.8°F12.7°C 51.0°F10.6°C 87% 3.5 mph 5.6 kmh 9.2 mph14.8 kmh 30.27 in1025.1 mb - 0.00 in0.0 mm 0.01 in0.3 mm
07:40 PM 54.5°F12.5°C 50.7°F10.4°C 87% 2.3 mph N3.7 kmh N 6.9 mph11.1 kmh 30.27 in1025.1 mb - 0.00 in0.0 mm 0.01 in0.3 mm
07:50 PM 54.2°F12.3°C 50.7°F10.4°C 88% 3.5 mph N5.6 kmh N 6.9 mph11.1 kmh 30.27 in1025.1 mb - 0.00 in0.0 mm 0.01 in0.3 mm
08:00 PM 54.0°F12.2°C 50.5°F10.3°C 88% 3.5 mph NE5.6 kmh NE 8.1 mph13.0 kmh 30.26 in1024.7 mb - 0.00 in0.0 mm 0.01 in0.3 mm
08:10 PM 53.8°F12.1°C 50.3°F10.2°C 88% 2.3 mph N3.7 kmh N 8.1 mph13.0 kmh 30.27 in1025.1 mb - 0.00 in0.0 mm 0.01 in0.3 mm
08:20 PM 53.7°F12.1°C 50.5°F10.3°C 89% 3.5 mph NE5.6 kmh NE 9.2 mph14.8 kmh 30.27 in1025.1 mb - 0.00 in0.0 mm 0.01 in0.3 mm
08:30 PM 53.4°F11.9°C 50.3°F10.2°C 89% 3.5 mph N5.6 kmh N 5.8 mph9.3 kmh 30.27 in1025.1 mb - 0.00 in0.0 mm 0.01 in0.3 mm
08:40 PM 53.2°F11.8°C 50.1°F10.1°C 89% 2.3 mph NNW3.7 kmh NNW 4.6 mph7.4 kmh 30.27 in1025.1 mb - 0.00 in0.0 mm 0.01 in0.3 mm
08:50 PM 53.2°F11.8°C 50.3°F10.2°C 90% 2.3 mph NNE3.7 kmh NNE 4.6 mph7.4 kmh 30.27 in1025.1 mb - 0.00 in0.0 mm 0.01 in0.3 mm
09:00 PM 53.2°F11.8°C 50.3°F10.2°C 90% 2.3 mph NNE3.7 kmh NNE 3.5 mph5.6 kmh 30.27 in1025.1 mb - 0.00 in0.0 mm 0.01 in0.3 mm
09:10 PM 53.2°F11.8°C 50.3°F10.2°C 90% 4.6 mph N7.4 kmh N 8.1 mph13.0 kmh 30.27 in1025.1 mb - 0.00 in0.0 mm 0.01 in0.3 mm
09:20 PM 53.2°F11.8°C 50.6°F10.3°C 91% 2.3 mph N3.7 kmh N 4.6 mph7.4 kmh 30.28 in1025.4 mb - 0.00 in0.0 mm 0.01 in0.3 mm
09:30 PM 53.2°F11.8°C 50.6°F10.3°C 91% 2.3 mph N3.7 kmh N 3.5 mph5.6 kmh 30.28 in1025.4 mb - 0.00 in0.0 mm 0.01 in0.3 mm
09:40 PM 53.2°F11.8°C 50.6°F10.3°C 91% 1.2 mph NNE1.9 kmh NNE 4.6 mph7.4 kmh 30.27 in1025.1 mb - 0.00 in0.0 mm 0.01 in0.3 mm
09:50 PM 53.2°F11.8°C 50.6°F10.3°C 91% 2.3 mph N3.7 kmh N 4.6 mph7.4 kmh 30.28 in1025.4 mb - 0.00 in0.0 mm 0.01 in0.3 mm
10:00 PM 53.2°F11.8°C 50.6°F10.3°C 91% Calm Calm 3.5 mph5.6 kmh 30.27 in1025.1 mb - 0.00 in0.0 mm 0.01 in0.3 mm
10:10 PM 53.2°F11.8°C 50.6°F10.3°C 91% 2.3 mph N3.7 kmh N 5.8 mph9.3 kmh 30.28 in1025.4 mb - 0.00 in0.0 mm 0.01 in0.3 mm
10:20 PM 53.2°F11.8°C 50.6°F10.3°C 91% 2.3 mph N3.7 kmh N 3.5 mph5.6 kmh 30.27 in1025.1 mb - 0.00 in0.0 mm 0.01 in0.3 mm
10:30 PM 53.2°F11.8°C 50.6°F10.3°C 91% 2.3 mph NNE3.7 kmh NNE 4.6 mph7.4 kmh 30.27 in1025.1 mb - 0.00 in0.0 mm 0.01 in0.3 mm
10:40 PM 53.2°F11.8°C 50.9°F10.5°C 92% 3.5 mph NNE5.6 kmh NNE 5.8 mph9.3 kmh 30.28 in1025.4 mb - 0.00 in0.0 mm 0.01 in0.3 mm
10:50 PM 53.1°F11.7°C 50.8°F10.4°C 92% 3.5 mph NNE5.6 kmh NNE 5.8 mph9.3 kmh 30.28 in1025.4 mb - 0.00 in0.0 mm 0.01 in0.3 mm
11:00 PM 53.1°F11.7°C 50.9°F10.5°C 92% 2.3 mph NNE3.7 kmh NNE 3.5 mph5.6 kmh 30.27 in1025.1 mb - 0.00 in0.0 mm 0.06 in1.5 mm
11:10 PM 53.1°F11.7°C 50.8°F10.4°C 92% 1.2 mph N1.9 kmh N 3.5 mph5.6 kmh 30.27 in1025.1 mb - 0.00 in0.0 mm 0.06 in1.5 mm
11:20 PM 53.0°F11.7°C 50.7°F10.4°C 92% 3.5 mph N5.6 kmh N 5.8 mph9.3 kmh 30.27 in1025.1 mb - 0.00 in0.0 mm 0.06 in1.5 mm
11:30 PM 53.0°F11.7°C 50.7°F10.4°C 92% 1.2 mph N1.9 kmh N 3.5 mph5.6 kmh 30.26 in1024.7 mb - 0.00 in0.0 mm 0.06 in1.5 mm
11:40 PM 53.0°F11.7°C 50.7°F10.4°C 92% 1.2 mph N1.9 kmh N 3.5 mph5.6 kmh 30.26 in1024.7 mb - 0.00 in0.0 mm 0.06 in1.5 mm
11:50 PM 52.9°F11.6°C 50.6°F10.3°C 92% 2.3 mph NNE3.7 kmh NNE 3.5 mph5.6 kmh 30.25 in1024.4 mb - 0.00 in0.0 mm 0.06 in1.5 mm